Time;durP1;ratioP1;P1;durP2;ratioP2;P2;SDS_P1;SDS_P2;PMS_P1;PMS_P2;Temp;Humidity;BMP_temperature;BMP_pressure;BME280_temperature;BME280_humidity;BME280_pressure;Samples;Min_cycle;Max_cycle;Signal;HPM_P1;HPM_P2
2023/10/09 00:00:36;;;;;;;5.43;2.58;;;12.30;99.90;;;;;;5049922;28;20036;-47
2023/10/09 00:03:01;;;;;;;;;;;12.30;99.90;;;;;;5050239;28;20078;-49
2023/10/09 00:05:45;;;;;;;6.43;2.55;;;12.30;99.90;;;;;;5049860;28;19905;-54
2023/10/09 00:08:17;;;;;;;7.47;2.55;;;12.30;99.90;;;;;;5049686;28;20025;-51
2023/10/09 00:10:49;;;;;;;6.55;2.58;;;12.30;99.90;;;;;;5049967;28;20033;-50
2023/10/09 00:13:15;;;;;;;6.90;3.00;;;12.20;99.90;;;;;;5049548;28;20478;-49
2023/10/09 00:15:42;;;;;;;4.78;2.85;;;12.20;99.90;;;;;;5049671;28;20024;-49
2023/10/09 00:18:11;;;;;;;7.03;2.90;;;12.10;99.90;;;;;;5049581;28;20100;-54
2023/10/09 00:20:42;;;;;;;;;;;12.10;99.90;;;;;;5050110;28;20033;-54
2023/10/09 00:23:12;;;;;;;6.78;2.25;;;12.10;99.90;;;;;;5049594;28;19958;-48
2023/10/09 00:25:45;;;;;;;5.57;2.42;;;12.00;99.90;;;;;;5049665;28;20025;-49
2023/10/09 00:28:11;;;;;;;4.68;2.50;;;12.00;99.90;;;;;;5049401;28;20478;-48
2023/10/09 00:30:41;;;;;;;4.18;2.20;;;12.00;99.90;;;;;;5049426;28;20032;-48
2023/10/09 00:33:07;;;;;;;4.80;2.35;;;11.90;99.90;;;;;;5031484;28;20049;-47
2023/10/09 00:35:54;;;;;;;4.80;2.60;;;11.80;99.90;;;;;;5053793;28;20020;-48
2023/10/09 00:40:47;;;;;;;6.40;2.65;;;11.80;99.90;;;;;;5053552;28;20378;-58
2023/10/09 00:43:19;;;;;;;5.32;2.67;;;11.80;99.90;;;;;;5053571;28;20025;-47
2023/10/09 00:45:46;;;;;;;7.22;3.00;;;11.80;99.90;;;;;;5053301;28;20033;-55
2023/10/09 00:48:22;;;;;;;7.60;3.22;;;11.80;99.90;;;;;;5053337;28;20485;-57
2023/10/09 00:50:52;;;;;;;7.22;3.35;;;11.90;99.90;;;;;;5053038;28;20112;-53
2023/10/09 00:53:30;;;;;;;8.45;3.72;;;11.90;99.90;;;;;;5053293;28;20072;-48
2023/10/09 00:55:57;;;;;;;6.82;3.42;;;12.00;99.90;;;;;;5053026;28;20351;-56
2023/10/09 00:58:26;;;;;;;9.00;3.40;;;12.00;99.90;;;;;;5053185;28;20021;-57
2023/10/09 01:00:53;;;;;;;8.55;3.83;;;12.00;99.90;;;;;;5053036;28;20024;-51
2023/10/09 01:03:20;;;;;;;8.30;3.70;;;12.00;99.90;;;;;;5053398;28;20032;-56
2023/10/09 01:11:09;;;;;;;9.18;3.45;;;12.10;99.90;;;;;;5053097;28;20498;-51
2023/10/09 01:13:41;;;;;;;6.68;4.10;;;12.10;99.90;;;;;;5053041;28;20037;-57
2023/10/09 01:16:16;;;;;;;7.82;4.15;;;12.10;99.90;;;;;;5052643;28;20431;-48
2023/10/09 01:18:46;;;;;;;9.57;4.70;;;12.10;99.90;;;;;;5052881;28;20041;-53
2023/10/09 01:21:14;;;;;;;6.82;3.55;;;12.10;99.90;;;;;;5052625;28;20017;-56
2023/10/09 01:23:58;;;;;;;6.82;3.15;;;12.00;99.90;;;;;;5052701;28;20135;-50
2023/10/09 01:26:32;;;;;;;5.97;2.67;;;12.00;99.90;;;;;;5052641;28;20037;-53
2023/10/09 01:29:00;;;;;;;4.65;2.47;;;12.00;99.90;;;;;;5052711;28;20048;-54
2023/10/09 01:31:43;;;;;;;6.90;2.78;;;11.90;99.90;;;;;;5052540;28;20053;-56
2023/10/09 01:34:09;;;;;;;5.95;2.60;;;12.00;99.90;;;;;;5052257;28;20171;-55
2023/10/09 01:36:39;;;;;;;5.22;2.50;;;12.00;99.90;;;;;;5052575;28;20049;-55
2023/10/09 01:39:25;;;;;;;8.15;2.90;;;12.00;99.90;;;;;;5052289;28;20489;-56
2023/10/09 01:42:05;;;;;;;7.03;3.25;;;12.00;99.90;;;;;;5052358;28;20025;-55
2023/10/09 01:44:35;;;;;;;8.52;3.53;;;12.00;99.90;;;;;;5052086;28;20389;-55
2023/10/09 01:47:06;;;;;;;9.40;4.07;;;12.00;99.90;;;;;;5052404;28;20025;-56
2023/10/09 01:49:36;;;;;;;8.75;4.05;;;12.00;99.90;;;;;;5052398;28;20036;-55
2023/10/09 01:52:09;;;;;;;7.65;3.35;;;12.00;99.90;;;;;;5052348;28;20157;-54
2023/10/09 01:54:37;;;;;;;6.22;3.28;;;12.00;99.90;;;;;;5051861;28;20527;-47
2023/10/09 01:57:12;;;;;;;5.63;3.20;;;11.90;99.90;;;;;;5052439;28;20112;-46
2023/10/09 01:59:49;;;;;;;8.38;2.72;;;11.90;99.90;;;;;;5052007;28;20032;-49
2023/10/09 02:02:33;;;;;;;4.05;2.10;;;11.90;99.90;;;;;;5052027;28;20017;-47
2023/10/09 02:07:41;;;;;;;5.18;2.10;;;11.80;99.90;;;;;;5051845;28;20108;-47
2023/10/09 02:13:00;;;;;;;5.37;2.50;;;11.70;99.90;;;;;;5057910;28;20116;-46
2023/10/09 02:18:26;;;;;;;6.00;3.05;;;11.70;99.90;;;;;;5071764;28;20025;-46
2023/10/09 02:21:12;;;;;;;6.50;3.47;;;11.70;99.90;;;;;;5063601;28;20103;-46
2023/10/09 02:26:32;;;;;;;9.23;3.38;;;11.70;99.90;;;;;;5071699;28;20041;-47
2023/10/09 02:29:05;;;;;;;6.72;2.70;;;11.70;99.90;;;;;;5052851;28;20024;-50
2023/10/09 02:31:40;;;;;;;5.05;2.67;;;11.80;99.90;;;;;;5056584;28;20032;-50
2023/10/09 02:34:10;;;;;;;5.47;2.90;;;11.80;99.90;;;;;;5070030;28;20067;-51
2023/10/09 02:36:57;;;;;;;5.93;2.40;;;11.80;99.90;;;;;;5064036;28;20060;-53
2023/10/09 02:39:26;;;;;;;8.15;3.40;;;11.80;99.90;;;;;;5065100;28;20024;-53
2023/10/09 02:42:19;;;;;;;6.93;3.10;;;11.80;99.90;;;;;;5051214;28;20032;-53
2023/10/09 02:44:51;;;;;;;7.18;3.45;;;11.80;99.90;;;;;;5051159;28;20427;-50
2023/10/09 02:47:24;;;;;;;6.63;2.97;;;11.90;99.90;;;;;;5051167;28;20113;-53
2023/10/09 02:49:50;;;;;;;6.47;3.33;;;11.80;99.90;;;;;;5051185;28;20036;-53
2023/10/09 02:52:24;;;;;;;8.18;3.10;;;11.90;99.90;;;;;;5064829;28;20512;-50
2023/10/09 02:54:59;;;;;;;8.75;3.53;;;11.80;99.90;;;;;;5050944;28;20036;-53
2023/10/09 02:57:36;;;;;;;8.45;3.88;;;11.80;99.90;;;;;;5050279;28;20100;-46
2023/10/09 03:00:09;;;;;;;9.85;3.25;;;11.80;99.90;;;;;;5050926;28;20387;-51
2023/10/09 03:02:39;;;;;;;11.18;5.22;;;11.80;99.90;;;;;;5050877;28;20044;-54
2023/10/09 03:05:06;;;;;;;9.52;3.92;;;11.80;99.90;;;;;;5050746;28;20025;-55
2023/10/09 03:07:34;;;;;;;8.52;3.38;;;11.80;99.90;;;;;;5050703;28;20646;-54
2023/10/09 03:09:59;;;;;;;9.88;4.05;;;11.80;99.90;;;;;;5050882;28;20191;-56
2023/10/09 03:12:27;;;;;;;10.88;4.35;;;11.80;99.90;;;;;;5032600;28;20116;-47
2023/10/09 03:14:54;;;;;;;10.35;4.35;;;11.80;99.90;;;;;;5050692;28;20047;-55
2023/10/09 03:17:20;;;;;;;8.18;3.45;;;11.80;99.90;;;;;;5050655;28;20025;-54
2023/10/09 03:19:47;;;;;;;7.20;3.80;;;11.80;99.90;;;;;;5050436;28;20091;-52
2023/10/09 03:22:12;;;;;;;8.05;3.58;;;11.80;99.90;;;;;;5050549;28;20021;-52
2023/10/09 03:24:44;;;;;;;6.82;3.47;;;11.80;99.90;;;;;;5050168;28;20514;-55
2023/10/09 03:27:11;;;;;;;5.88;3.08;;;11.80;99.90;;;;;;5050464;28;20025;-55
2023/10/09 03:29:37;;;;;;;6.38;3.63;;;11.80;99.90;;;;;;5050289;28;20517;-56
2023/10/09 03:32:03;;;;;;;8.40;3.42;;;11.80;99.90;;;;;;5050412;28;20100;-52
2023/10/09 03:34:30;;;;;;;7.82;3.65;;;11.80;99.90;;;;;;5050078;28;20100;-49
2023/10/09 03:37:06;;;;;;;8.45;3.72;;;11.70;99.90;;;;;;5050468;28;20053;-48
2023/10/09 03:39:47;;;;;;;8.48;4.45;;;11.70;99.90;;;;;;5050491;28;20032;-50
2023/10/09 03:42:19;;;;;;;8.57;4.25;;;11.80;99.90;;;;;;5050281;28;20025;-50
2023/10/09 03:44:52;;;;;;;10.70;4.57;;;11.80;99.90;;;;;;5050238;28;20112;-54
2023/10/09 03:47:22;;;;;;;7.45;4.28;;;11.80;99.90;;;;;;5063977;28;20764;-58
2023/10/09 03:49:50;;;;;;;8.75;4.47;;;11.70;99.90;;;;;;5050182;28;20032;-51
2023/10/09 03:52:17;;;;;;;6.50;3.20;;;11.60;99.90;;;;;;5050048;28;20095;-51
2023/10/09 03:54:46;;;;;;;8.50;3.78;;;11.50;99.90;;;;;;5049997;28;20072;-56
2023/10/09 03:57:18;;;;;;;8.73;4.13;;;11.50;99.90;;;;;;5049779;28;20029;-52
2023/10/09 03:59:46;;;;;;;9.95;3.58;;;11.50;99.90;;;;;;5050162;28;20060;-48
2023/10/09 04:02:13;;;;;;;9.03;3.40;;;11.40;99.90;;;;;;5049786;28;20024;-45
2023/10/09 04:04:38;;;;;;;8.73;3.60;;;11.40;99.90;;;;;;5049850;28;20031;-45
2023/10/09 04:07:06;;;;;;;11.27;3.65;;;11.50;99.90;;;;;;5049841;28;20033;-47
2023/10/09 04:09:39;;;;;;;6.35;3.17;;;11.40;99.90;;;;;;5049779;28;20036;-46
2023/10/09 04:14:54;;;;;;;8.07;3.85;;;11.50;99.90;;;;;;5049904;28;20033;-50
2023/10/09 04:22:49;;;;;;;7.25;3.90;;;11.40;99.90;;;;;;5049819;28;20495;-47
2023/10/09 04:25:15;;;;;;;7.18;3.53;;;11.40;99.90;;;;;;5049801;28;20032;-48
2023/10/09 04:27:41;;;;;;;7.90;3.83;;;11.40;99.90;;;;;;5049447;28;20402;-49
2023/10/09 04:30:07;;;;;;;6.07;3.63;;;11.30;99.90;;;;;;5049669;28;20033;-48
2023/10/09 04:32:34;;;;;;;6.90;3.20;;;11.20;99.90;;;;;;5049249;28;20049;-46
2023/10/09 04:38:04;;;;;;;6.13;2.83;;;11.10;99.90;;;;;;4985932;28;20598;-46
2023/10/09 04:40:51;;;;;;;7.50;2.90;;;11.10;99.90;;;;;;5037526;28;20120;-46
2023/10/09 04:43:20;;;;;;;7.55;3.13;;;11.10;99.90;;;;;;5049619;28;20025;-46
2023/10/09 04:46:07;;;;;;;6.55;3.47;;;11.10;99.90;;;;;;5049481;28;20437;-46
2023/10/09 04:48:33;;;;;;;6.97;3.60;;;11.10;99.90;;;;;;5049373;28;20041;-46
2023/10/09 04:54:13;;;;;;;7.82;3.75;;;11.20;99.90;;;;;;5004751;28;20041;-46
2023/10/09 04:56:51;;;;;;;7.15;3.53;;;11.20;99.90;;;;;;5049283;28;20028;-47
2023/10/09 04:59:24;;;;;;;6.55;2.88;;;11.20;99.90;;;;;;5049322;28;20040;-54
2023/10/09 05:01:57;;;;;;;5.20;2.88;;;11.10;99.90;;;;;;5048888;28;20021;-52
2023/10/09 05:04:39;;;;;;;4.00;2.40;;;11.10;99.90;;;;;;5049170;28;20115;-54
2023/10/09 05:07:24;;;;;;;9.13;2.83;;;11.10;99.90;;;;;;5048932;28;20048;-51
2023/10/09 05:09:57;;;;;;;5.60;2.88;;;11.10;99.90;;;;;;5049183;28;20448;-59
2023/10/09 05:12:27;;;;;;;4.72;2.63;;;11.00;99.90;;;;;;5048906;28;20067;-53
2023/10/09 05:15:08;;;;;;;8.68;3.53;;;10.90;99.90;;;;;;5049209;28;20081;-58
2023/10/09 05:17:35;;;;;;;8.07;3.40;;;10.90;99.90;;;;;;5048914;28;20025;-56
2023/10/09 05:22:56;;;;;;;9.05;3.35;;;10.90;99.90;;;;;;5052677;28;20052;-54
2023/10/09 05:25:53;;;;;;;8.15;3.60;;;10.90;99.90;;;;;;5052866;28;20037;-48
2023/10/09 05:31:06;;;;;;;4.90;2.55;;;10.80;99.90;;;;;;5052580;28;20069;-50
2023/10/09 05:33:35;;;;;;;6.03;2.60;;;10.80;99.90;;;;;;5052191;28;20083;-51
2023/10/09 05:36:31;;;;;;;6.15;2.30;;;10.80;99.90;;;;;;5052483;28;20035;-51
2023/10/09 05:39:22;;;;;;;6.10;2.97;;;10.70;99.90;;;;;;5052207;28;20037;-52
2023/10/09 05:41:47;;;;;;;5.10;2.30;;;10.70;99.90;;;;;;5052066;28;22085;-49
2023/10/09 05:47:29;;;;;;;6.18;2.95;;;10.70;99.90;;;;;;5052441;28;20028;-54
2023/10/09 05:50:19;;;;;;;7.50;3.80;;;10.70;99.90;;;;;;5052053;28;20028;-54
2023/10/09 06:14:12;;;;;;;8.25;4.40;;;11.10;99.90;;;;;;5051704;28;20043;-54
2023/10/09 06:19:08;;;;;;;7.72;4.35;;;11.20;99.90;;;;;;5051422;28;20037;-55
2023/10/09 06:24:17;;;;;;;7.70;4.00;;;11.30;99.90;;;;;;5071227;28;20032;-56
2023/10/09 06:34:46;;;;;;;8.88;4.07;;;11.20;99.90;;;;;;5071124;28;20576;-47
2023/10/09 06:45:03;;;;;;;8.93;4.60;;;11.20;99.90;;;;;;5051135;28;20120;-51
2023/10/09 06:47:36;;;;;;;13.60;5.32;;;11.30;99.90;;;;;;5050992;28;20027;-51
2023/10/09 06:55:51;;;;;;;13.32;5.82;;;11.50;99.90;;;;;;5052735;28;20563;-55
2023/10/09 06:58:41;;;;;;;9.57;5.30;;;11.60;99.90;;;;;;5050991;28;20654;-48
2023/10/09 07:01:28;;;;;;;14.32;5.40;;;11.70;99.90;;;;;;5050673;28;20505;-53
2023/10/09 07:04:10;;;;;;;10.93;5.43;;;11.90;99.90;;;;;;5050589;28;20017;-53
2023/10/09 07:16:57;;;;;;;10.00;5.28;;;12.40;99.90;;;;;;5062092;28;20042;-52
2023/10/09 07:22:03;;;;;;;6.07;3.38;;;12.60;99.90;;;;;;5070142;28;20020;-46
2023/10/09 07:24:43;;;;;;;12.10;3.47;;;12.50;99.90;;;;;;5070099;28;20516;-50
2023/10/09 07:27:13;;;;;;;6.50;3.25;;;12.50;99.90;;;;;;5070033;28;20035;-49
2023/10/09 07:29:48;;;;;;;7.10;3.70;;;12.60;99.90;;;;;;5070059;28;20064;-50
2023/10/09 07:32:21;;;;;;;10.95;4.53;;;12.70;99.90;;;;;;5069672;28;20027;-50
2023/10/09 07:34:54;;;;;;;9.23;4.00;;;12.80;99.90;;;;;;5064042;28;20039;-47
2023/10/09 07:37:23;;;;;;;8.02;4.20;;;13.00;99.90;;;;;;5058430;28;20017;-50
2023/10/09 07:39:57;;;;;;;7.80;4.38;;;13.20;99.90;;;;;;5059816;28;20020;-48
2023/10/09 07:42:33;;;;;;;8.43;4.43;;;13.30;99.90;;;;;;5049365;28;20029;-50
2023/10/09 07:45:12;;;;;;;9.20;3.92;;;13.40;99.90;;;;;;5049891;28;20029;-57
2023/10/09 07:48:04;;;;;;;;;;;13.60;99.90;;;;;;5050484;28;20082;-49
2023/10/09 07:50:48;;;;;;;8.27;4.05;;;13.80;99.90;;;;;;5049555;28;20007;-48
2023/10/09 07:53:26;;;;;;;6.38;4.13;;;14.10;99.90;;;;;;5049982;28;20075;-48
2023/10/09 07:55:58;;;;;;;12.17;4.70;;;14.30;99.90;;;;;;5058088;28;20032;-47
2023/10/09 07:58:27;;;;;;;13.65;4.28;;;14.60;99.90;;;;;;5069486;28;20082;-49
2023/10/09 08:01:06;;;;;;;10.35;4.28;;;14.70;99.90;;;;;;5069639;28;20032;-54
2023/10/09 08:03:34;;;;;;;9.25;4.32;;;14.80;99.90;;;;;;5069672;28;20040;-51
2023/10/09 08:17:11;;;;;;;6.32;3.50;;;15.30;99.90;;;;;;5057377;28;20017;-55
2023/10/09 08:19:51;;;;;;;7.75;3.75;;;15.50;99.90;;;;;;5049228;28;20033;-44
2023/10/09 08:22:42;;;;;;;7.35;4.25;;;15.50;99.90;;;;;;5055292;28;20024;-53
2023/10/09 08:25:03;;;;;;;10.48;4.53;;;15.50;99.90;;;;;;5049182;28;20036;-55
2023/10/09 08:33:03;;;;;;;11.05;5.15;;;15.70;99.90;;;;;;5069093;28;20040;-48
2023/10/09 08:35:35;;;;;;;9.20;5.32;;;15.80;99.90;;;;;;5069151;28;20025;-46
2023/10/09 08:38:10;;;;;;;7.97;4.78;;;15.90;99.90;;;;;;5069215;28;20021;-52
2023/10/09 08:40:41;;;;;;;8.23;5.07;;;16.00;99.90;;;;;;5061832;28;20141;-56
2023/10/09 08:43:16;;;;;;;8.80;4.70;;;16.00;99.90;;;;;;5049479;28;20055;-55
2023/10/09 08:46:00;;;;;;;8.98;4.65;;;16.00;99.90;;;;;;5049342;28;20815;-50
2023/10/09 08:48:27;;;;;;;12.65;4.90;;;16.00;99.90;;;;;;5063353;28;20531;-52
2023/10/09 08:50:56;;;;;;;11.05;4.93;;;15.90;99.90;;;;;;5065306;28;20489;-47
2023/10/09 08:53:24;;;;;;;13.18;5.15;;;16.00;99.90;;;;;;5068984;28;20037;-54
2023/10/09 08:55:51;;;;;;;11.23;4.65;;;16.20;99.90;;;;;;5059767;28;20033;-56
2023/10/09 08:58:36;;;;;;;8.48;4.95;;;16.30;99.90;;;;;;5066359;28;20143;-50
2023/10/09 09:01:02;;;;;;;8.43;4.95;;;16.40;99.90;;;;;;5054870;28;20053;-55
2023/10/09 09:03:38;;;;;;;7.75;4.70;;;16.50;99.90;;;;;;5054076;28;20037;-46
2023/10/09 09:06:05;;;;;;;9.75;4.65;;;16.60;99.90;;;;;;5055293;28;20013;-47
2023/10/09 09:08:36;;;;;;;11.18;4.88;;;16.70;99.90;;;;;;5055066;28;20029;-53
2023/10/09 09:11:16;;;;;;;12.07;4.60;;;16.80;99.90;;;;;;5055417;28;20033;-55
2023/10/09 09:13:48;;;;;;;6.93;4.15;;;17.10;99.90;;;;;;5059753;28;20342;-46
2023/10/09 09:16:18;;;;;;;7.65;3.78;;;17.40;99.90;;;;;;5065804;28;20039;-51
2023/10/09 09:21:40;;;;;;;6.72;3.53;;;17.70;99.90;;;;;;5066908;28;20028;-52
2023/10/09 09:26:46;;;;;;;5.38;3.17;;;17.70;99.90;;;;;;5067126;28;20104;-54
2023/10/09 09:29:12;;;;;;;;;;;17.60;99.90;;;;;;5072778;28;20025;-52
2023/10/09 09:31:38;;;;;;;7.45;3.75;;;17.70;99.90;;;;;;5072264;28;20353;-51
2023/10/09 09:34:17;;;;;;;8.63;4.63;;;17.70;99.90;;;;;;5072057;28;20128;-50
2023/10/09 09:36:58;;;;;;;12.20;4.50;;;17.70;99.90;;;;;;5071997;28;20021;-53
2023/10/09 09:39:28;;;;;;;8.68;4.30;;;17.80;99.90;;;;;;5064849;28;20040;-52
2023/10/09 09:42:07;;;;;;;8.48;3.97;;;18.00;99.90;;;;;;5057821;28;20043;-51
2023/10/09 09:44:43;;;;;;;10.88;4.13;;;18.20;99.90;;;;;;5071987;28;20028;-52
2023/10/09 09:47:13;;;;;;;7.80;4.53;;;18.30;99.90;;;;;;5071413;28;20029;-46
2023/10/09 09:49:41;;;;;;;8.52;4.65;;;18.40;99.90;;;;;;5071395;28;20029;-48
2023/10/09 09:52:10;;;;;;;6.67;3.67;;;18.50;99.90;;;;;;5072089;28;20307;-48
2023/10/09 09:54:37;;;;;;;9.45;4.45;;;18.80;99.90;;;;;;5071783;28;20642;-54
2023/10/09 09:57:08;;;;;;;7.97;3.38;;;18.90;99.90;;;;;;5071460;28;20053;-47
2023/10/09 10:00:04;;;;;;;7.32;3.20;;;19.20;99.90;;;;;;5071665;28;20385;-49
2023/10/09 10:02:33;;;;;;;4.55;2.63;;;19.60;99.90;;;;;;5069937;28;20039;-48
2023/10/09 10:05:03;;;;;;;6.78;3.25;;;19.90;99.90;;;;;;5071694;28;20162;-45
2023/10/09 10:07:39;;;;;;;6.90;3.20;;;20.10;99.90;;;;;;5071544;28;20108;-46
2023/10/09 10:11:04;;;;;;;7.05;3.45;;;20.50;99.90;;;;;;5071370;28;20016;-54
2023/10/09 10:13:42;;;;;;;7.65;3.33;;;21.10;99.90;;;;;;5071317;28;20120;-47
2023/10/09 10:21:41;;;;;;;8.10;3.10;;;22.00;99.90;;;;;;5071507;28;20056;-49
2023/10/09 10:24:29;;;;;;;7.45;2.70;;;21.90;99.90;;;;;;5071090;28;20029;-47
2023/10/09 10:27:24;;;;;;;5.25;2.60;;;22.10;99.90;;;;;;5071191;28;20036;-46
2023/10/09 10:30:11;;;;;;;6.07;2.50;;;22.30;99.90;;;;;;5060424;28;20039;-47
2023/10/09 10:32:51;;;;;;;5.72;2.97;;;22.10;99.90;;;;;;5070744;28;20109;-52
2023/10/09 10:35:32;;;;;;;7.20;3.70;;;22.00;99.90;;;;;;5070867;28;20024;-47
2023/10/09 10:40:46;;;;;;;8.73;4.13;;;21.80;99.90;;;;;;5063926;28;20038;-50
2023/10/09 10:46:04;;;;;;;6.32;3.55;;;22.10;99.90;;;;;;5051191;28;20120;-48
2023/10/09 10:48:38;;;;;;;6.95;3.70;;;22.50;99.90;;;;;;5053843;28;20020;-47
2023/10/09 10:51:04;;;;;;;8.25;3.72;;;22.90;99.90;;;;;;5064191;28;20029;-52
2023/10/09 10:53:47;;;;;;;7.40;3.17;;;23.20;99.90;;;;;;5051152;28;20032;-51
2023/10/09 11:01:25;;;;;;;5.15;2.95;;;24.20;99.90;;;;;;5063027;28;20036;-55
2023/10/09 11:03:58;;;;;;;6.82;3.08;;;24.70;99.90;;;;;;5070313;28;20410;-49
2023/10/09 11:06:37;;;;;;;5.75;2.67;;;25.30;99.90;;;;;;5070280;28;20056;-52
2023/10/09 11:09:23;;;;;;;4.80;2.75;;;25.20;99.90;;;;;;5070408;28;20050;-52
2023/10/09 11:11:55;;;;;;;6.45;3.05;;;25.10;99.90;;;;;;5056503;28;20025;-49
2023/10/09 11:14:24;;;;;;;6.30;2.80;;;25.20;99.90;;;;;;5057305;28;20047;-53
2023/10/09 11:16:50;;;;;;;5.47;2.88;;;24.90;99.90;;;;;;5069918;28;20020;-44
2023/10/09 11:22:27;;;;;;;8.23;3.15;;;25.10;99.90;;;;;;5070212;28;20044;-45
2023/10/09 11:25:00;;;;;;;5.70;2.90;;;25.10;99.90;;;;;;5063507;28;20032;-42
2023/10/09 11:27:29;;;;;;;5.65;2.60;;;25.10;99.90;;;;;;5069721;28;20036;-53
2023/10/09 11:29:54;;;;;;;6.07;2.95;;;25.10;99.90;;;;;;5070436;28;20036;-45
2023/10/09 11:32:25;;;;;;;5.10;2.40;;;24.90;99.90;;;;;;5060891;28;20390;-45
2023/10/09 11:35:08;;;;;;;5.57;2.80;;;25.10;99.90;;;;;;5070217;28;20028;-47
2023/10/09 11:37:42;;;;;;;5.95;2.67;;;25.50;99.90;;;;;;5070094;28;20033;-52
2023/10/09 11:40:44;;;;;;;5.35;2.83;;;26.20;99.90;;;;;;5066701;28;20056;-53
2023/10/09 11:43:13;;;;;;;4.82;2.25;;;26.60;99.90;;;;;;5050144;28;20120;-54
2023/10/09 11:45:39;;;;;;;4.35;2.53;;;27.30;99.90;;;;;;5050358;28;20104;-46
2023/10/09 11:48:31;;;;;;;5.30;2.67;;;27.20;99.90;;;;;;5050211;28;20071;-51
2023/10/09 11:51:18;;;;;;;4.30;2.45;;;27.40;99.90;;;;;;5058128;28;20497;-49
2023/10/09 11:53:43;;;;;;;4.88;2.60;;;26.90;99.90;;;;;;5063419;28;20042;-49
2023/10/09 11:56:14;;;;;;;8.40;2.95;;;26.80;99.90;;;;;;5065593;28;20020;-48
2023/10/09 11:58:40;;;;;;;6.07;2.22;;;26.90;99.90;;;;;;5065534;28;20035;-47
2023/10/09 12:01:17;;;;;;;5.28;2.92;;;27.10;99.90;;;;;;5069723;28;20024;-53
2023/10/09 12:03:49;;;;;;;9.10;2.90;;;26.70;99.80;;;;;;5069904;28;20124;-47
2023/10/09 12:06:18;;;;;;;4.70;2.22;;;26.90;99.90;;;;;;5069727;28;20029;-56
2023/10/09 12:08:48;;;;;;;4.72;2.42;;;27.20;99.90;;;;;;5069763;28;20095;-47
2023/10/09 12:11:22;;;;;;;3.97;2.13;;;27.50;99.00;;;;;;5069586;28;20027;-49
2023/10/09 12:13:56;;;;;;;5.82;2.83;;;27.30;98.70;;;;;;5069819;28;20064;-49
2023/10/09 12:16:22;;;;;;;4.95;2.28;;;27.10;99.50;;;;;;5069404;28;20083;-47
2023/10/09 12:18:52;;;;;;;5.47;2.53;;;26.90;99.90;;;;;;5069872;28;20395;-50
2023/10/09 12:21:18;;;;;;;5.38;2.53;;;26.70;99.90;;;;;;5063234;28;20597;-49
2023/10/09 12:23:47;;;;;;;4.65;2.13;;;26.60;99.90;;;;;;5062279;28;20107;-55
2023/10/09 12:26:16;;;;;;;4.75;2.25;;;26.50;99.80;;;;;;5069900;28;20075;-50
2023/10/09 12:28:49;;;;;;;5.28;2.58;;;26.70;99.90;;;;;;5069708;28;20090;-53
2023/10/09 12:31:19;;;;;;;7.25;3.10;;;26.80;99.90;;;;;;5073112;28;20016;-53
2023/10/09 12:33:46;;;;;;;4.40;2.40;;;26.50;99.90;;;;;;5073585;28;20527;-53
2023/10/09 12:36:19;;;;;;;6.13;2.00;;;26.70;98.80;;;;;;5073086;28;20029;-49
2023/10/09 12:38:50;;;;;;;3.30;1.67;;;26.60;99.20;;;;;;5072838;28;20032;-46
2023/10/09 12:41:26;;;;;;;4.97;2.33;;;26.40;99.20;;;;;;5059481;28;20024;-51
2023/10/09 12:43:57;;;;;;;6.95;2.60;;;26.20;99.40;;;;;;5066910;28;20025;-50
2023/10/09 12:46:22;;;;;;;4.90;2.30;;;26.20;99.70;;;;;;5056785;28;20374;-46
2023/10/09 12:48:49;;;;;;;4.57;2.10;;;26.10;99.10;;;;;;5057363;28;20025;-51
2023/10/09 12:51:16;;;;;;;4.47;2.33;;;26.00;98.70;;;;;;5057375;28;20029;-46
2023/10/09 12:53:48;;;;;;;3.67;1.90;;;25.90;98.80;;;;;;5069528;28;20072;-46
2023/10/09 12:56:18;;;;;;;5.47;2.50;;;25.80;99.50;;;;;;5070652;28;20066;-48
2023/10/09 12:58:52;;;;;;;6.53;2.25;;;25.60;99.80;;;;;;5065354;28;20029;-51
2023/10/09 13:01:20;;;;;;;5.55;2.30;;;25.60;99.90;;;;;;5066805;28;20096;-51
2023/10/09 13:03:49;;;;;;;4.97;2.20;;;25.50;99.60;;;;;;5062425;28;20024;-53
2023/10/09 13:06:15;;;;;;;5.38;2.20;;;25.60;99.70;;;;;;5065645;28;20032;-48
2023/10/09 13:08:42;;;;;;;4.22;2.17;;;25.50;98.40;;;;;;5060934;28;20029;-49
2023/10/09 13:11:11;;;;;;;5.35;2.42;;;25.20;98.70;;;;;;5065337;28;20140;-51
2023/10/09 13:13:42;;;;;;;5.43;2.28;;;25.20;99.60;;;;;;5058172;28;20540;-54
2023/10/09 13:16:20;;;;;;;4.85;2.45;;;25.20;98.80;;;;;;5060850;28;20097;-53
2023/10/09 13:18:52;;;;;;;5.60;2.67;;;25.30;99.20;;;;;;5069851;28;20047;-49
2023/10/09 13:21:26;;;;;;;5.10;2.15;;;25.10;98.90;;;;;;5066798;28;20021;-56
2023/10/09 13:23:54;;;;;;;3.55;1.80;;;25.10;99.40;;;;;;5072530;28;20170;-51
2023/10/09 13:26:25;;;;;;;5.93;2.45;;;25.20;98.90;;;;;;5072841;28;20036;-48
2023/10/09 13:28:54;;;;;;;6.13;2.00;;;25.30;98.70;;;;;;5072759;28;20538;-47
2023/10/09 13:31:25;;;;;;;4.80;2.28;;;25.10;98.60;;;;;;5072623;28;20021;-53
2023/10/09 13:33:54;;;;;;;5.70;2.50;;;25.20;99.10;;;;;;5063132;28;20053;-45
2023/10/09 13:36:27;;;;;;;5.57;2.00;;;25.10;98.90;;;;;;5070577;28;20021;-42
2023/10/09 13:38:57;;;;;;;3.85;2.17;;;25.10;98.40;;;;;;5072757;28;20116;-51
2023/10/09 13:41:29;;;;;;;5.28;2.60;;;25.20;99.80;;;;;;5058195;28;20061;-49
2023/10/09 13:43:56;;;;;;;3.83;2.00;;;25.20;98.80;;;;;;5052663;28;20087;-47
2023/10/09 13:46:23;;;;;;;5.13;2.13;;;25.20;98.60;;;;;;5052665;28;20021;-57
2023/10/09 13:48:49;;;;;;;4.55;2.10;;;25.10;98.70;;;;;;5052762;28;20541;-48
2023/10/09 13:51:18;;;;;;;6.97;2.58;;;25.00;99.20;;;;;;5053148;28;20053;-50
2023/10/09 13:53:48;;;;;;;5.35;2.20;;;24.90;99.50;;;;;;5067217;28;20464;-51
2023/10/09 13:56:18;;;;;;;4.57;2.17;;;25.10;98.70;;;;;;5072563;28;20032;-43
2023/10/09 13:58:54;;;;;;;5.32;2.33;;;24.90;99.50;;;;;;5072152;28;20033;-51
2023/10/09 14:01:26;;;;;;;4.80;2.03;;;24.90;98.90;;;;;;5072126;28;20024;-43
2023/10/09 14:03:59;;;;;;;5.75;2.45;;;24.80;98.90;;;;;;5071962;28;20029;-45
2023/10/09 14:06:32;;;;;;;5.95;2.10;;;24.80;99.90;;;;;;5072262;28;20112;-54
2023/10/09 14:08:59;;;;;;;5.15;2.45;;;24.70;99.40;;;;;;5072088;28;20028;-46
2023/10/09 14:11:25;;;;;;;4.13;1.98;;;24.60;99.20;;;;;;5071854;28;20024;-50
2023/10/09 14:13:52;;;;;;;6.63;2.67;;;24.70;99.10;;;;;;5071568;28;20062;-46
2023/10/09 14:16:24;;;;;;;7.60;2.35;;;24.60;99.90;;;;;;5072040;28;20017;-46
2023/10/09 14:18:56;;;;;;;5.28;2.42;;;24.60;99.90;;;;;;5071987;28;20511;-48
2023/10/09 14:21:25;;;;;;;3.47;1.80;;;24.50;99.20;;;;;;5071749;28;20021;-49
2023/10/09 14:23:56;;;;;;;5.15;2.42;;;24.50;99.90;;;;;;5072007;28;20039;-46
2023/10/09 14:26:29;;;;;;;4.90;2.40;;;24.50;99.90;;;;;;5071463;28;20477;-46
2023/10/09 14:28:56;;;;;;;4.80;2.25;;;24.60;99.60;;;;;;5071926;28;20036;-48
2023/10/09 14:31:27;;;;;;;5.32;2.15;;;24.40;99.90;;;;;;5071395;28;20034;-50
2023/10/09 14:33:56;;;;;;;3.75;2.10;;;24.40;99.80;;;;;;5071432;28;20412;-46
2023/10/09 14:36:23;;;;;;;4.88;2.10;;;24.30;99.40;;;;;;5071499;28;20127;-46
2023/10/09 14:38:52;;;;;;;3.78;2.05;;;24.40;99.40;;;;;;5071845;28;20036;-50
2023/10/09 14:41:21;;;;;;;;;;;24.30;99.00;;;;;;5059227;28;20029;-43
2023/10/09 14:43:48;;;;;;;5.00;2.20;;;24.20;99.60;;;;;;5051606;28;19920;-49
2023/10/09 14:46:14;;;;;;;5.20;2.40;;;24.20;99.90;;;;;;5051698;28;20041;-56
2023/10/09 14:48:41;;;;;;;4.32;2.28;;;24.10;99.90;;;;;;5051573;28;20076;-54
2023/10/09 14:51:10;;;;;;;5.28;2.38;;;23.90;99.90;;;;;;5051630;28;20029;-50
2023/10/09 14:53:36;;;;;;;5.13;2.17;;;23.80;99.90;;;;;;5050248;28;20060;-46
2023/10/09 14:56:08;;;;;;;5.95;2.22;;;23.60;99.90;;;;;;5051720;28;20087;-51
2023/10/09 14:58:35;;;;;;;6.13;2.25;;;23.50;99.90;;;;;;5051481;28;20036;-47
2023/10/09 15:01:15;;;;;;;4.88;2.10;;;23.20;99.90;;;;;;5051579;28;20030;-45
2023/10/09 15:03:42;;;;;;;5.68;2.35;;;23.10;99.90;;;;;;5051333;28;20025;-53
2023/10/09 15:06:10;;;;;;;6.28;2.60;;;23.00;99.90;;;;;;5051292;28;20044;-49
2023/10/09 15:08:36;;;;;;;3.70;2.00;;;22.80;99.90;;;;;;5051400;28;20018;-45
2023/10/09 15:11:02;;;;;;;7.35;2.30;;;22.70;99.90;;;;;;5051178;28;20036;-48
2023/10/09 15:13:28;;;;;;;4.88;2.10;;;22.60;99.90;;;;;;5051364;28;20041;-46
2023/10/09 15:15:55;;;;;;;6.72;2.70;;;22.70;99.90;;;;;;5052210;28;20025;-55
2023/10/09 15:18:21;;;;;;;6.85;2.80;;;22.60;99.90;;;;;;5063778;28;20032;-46
2023/10/09 15:20:48;;;;;;;5.80;2.35;;;22.60;99.90;;;;;;5051083;28;20450;-48
2023/10/09 15:23:14;;;;;;;8.82;2.83;;;22.50;99.90;;;;;;5056262;28;20496;-51
2023/10/09 15:25:42;;;;;;;5.28;2.53;;;22.40;99.90;;;;;;5059227;28;20033;-50
2023/10/09 15:28:09;;;;;;;5.20;2.73;;;22.40;99.90;;;;;;5065164;28;20029;-57
2023/10/09 15:30:37;;;;;;;5.18;2.78;;;22.30;99.90;;;;;;5050891;28;20128;-53
2023/10/09 15:33:05;;;;;;;4.32;2.38;;;22.30;99.90;;;;;;5050345;28;20083;-54
2023/10/09 15:35:33;;;;;;;6.57;2.53;;;22.20;99.90;;;;;;5055766;28;20041;-54
2023/10/09 15:38:05;;;;;;;7.18;2.88;;;22.10;99.90;;;;;;5070954;28;20101;-51